Time;durP1;ratioP1;P1;durP2;ratioP2;P2;SDS_P1;SDS_P2;PMS_P1;PMS_P2;Temp;Humidity;BMP_temperature;BMP_pressure;BME280_temperature;BME280_humidity;BME280_pressure;Samples;Min_cycle;Max_cycle;Signal;HPM_P1;HPM_P2
2022/06/18 00:01:14;;;;;;;;;;;;;;;20.55;72.72;97223.44;5088860;28;19920;-71
2022/06/18 00:04:14;;;;;;;;;;;;;;;20.65;72.33;97213.81;5087998;28;20319;-72
2022/06/18 00:07:18;;;;;;;;;;;;;;;20.64;71.93;97206.06;5087545;28;19943;-71
2022/06/18 00:10:19;;;;;;;;;;;;;;;20.66;71.61;97202.34;5088765;28;20392;-71
2022/06/18 00:16:34;;;;;;;;;;;;;;;20.91;70.46;97194.06;5087297;28;20399;-71
2022/06/18 00:19:34;;;;;;;;;;;;;;;21.25;69.10;97201.72;5072819;28;20288;-71
2022/06/18 00:22:35;;;;;;;;;;;;;;;21.61;67.97;97194.13;5088631;28;20405;-70
2022/06/18 00:25:35;;;;;;;;;;;;;;;21.75;67.40;97192.91;5087445;28;19927;-71
2022/06/18 00:28:36;;;;;;;;;;;;;;;21.81;67.55;97198.53;5069976;28;19963;-70
2022/06/18 00:31:36;;;;;;;;;;;;;;;21.72;68.04;97201.91;5090156;28;19927;-70
2022/06/18 00:34:37;;;;;;;;;;;;;;;21.60;68.15;97205.63;5088695;28;19926;-71
2022/06/18 00:37:38;;;;;;;;;;;;;;;21.63;68.01;97210.66;5076688;28;19944;-71
2022/06/18 00:40:41;;;;;;;;;;;;;;;21.66;69.79;97212.16;5093536;28;20421;-72
2022/06/18 00:43:42;;;;;;;;;;;;;;;21.34;71.14;97211.50;5077137;28;20410;-71
2022/06/18 00:46:42;;;;;;;;;;;;;;;21.38;71.77;97207.63;5068796;28;20467;-71
2022/06/18 00:49:35;;;;;;;;;;;;;;;21.48;71.73;97208.50;5069607;28;19921;-70
2022/06/18 00:52:42;;;;;;;;;;;;;;;21.34;72.31;97201.78;5066628;28;19955;-71
2022/06/18 00:55:26;;;;;;;;;;;;;;;21.22;73.00;97202.84;5066005;28;19973;-71
2022/06/18 00:58:27;;;;;;;;;;;;;;;20.97;73.94;97203.22;5068745;28;19966;-71
2022/06/18 01:01:27;;;;;;;;;;;;;;;21.18;73.36;97204.09;5067113;28;19920;-71
2022/06/18 01:04:40;;;;;;;;;;;;;;;21.35;72.50;97200.00;5067273;28;19954;-72
2022/06/18 01:07:21;;;;;;;;;;;;;;;21.47;72.37;97193.66;5065385;28;19921;-71
2022/06/18 01:10:22;;;;;;;;;;;;;;;21.63;71.75;97186.94;5066612;28;19928;-71
2022/06/18 01:13:23;;;;;;;;;;;;;;;21.48;72.04;97190.03;5065516;28;19928;-70
2022/06/18 01:16:27;;;;;;;;;;;;;;;21.47;71.45;97172.59;5065646;28;19920;-70
2022/06/18 01:19:32;;;;;;;;;;;;;;;21.36;72.08;97176.16;5066858;28;19920;-69
2022/06/18 01:22:15;;;;;;;;;;;;;;;21.38;72.09;97170.75;5065876;28;19921;-71
2022/06/18 01:25:20;;;;;;;;;;;;;;;21.40;71.64;97168.81;5065330;28;19920;-71
2022/06/18 01:28:22;;;;;;;;;;;;;;;21.23;72.03;97166.78;5067866;28;19928;-70
2022/06/18 01:31:23;;;;;;;;;;;;;;;21.13;72.31;97166.75;5065915;28;19931;-69
2022/06/18 01:34:24;;;;;;;;;;;;;;;20.97;72.71;97164.59;5064670;28;19927;-69
2022/06/18 01:37:26;;;;;;;;;;;;;;;20.85;73.23;97163.00;5067476;28;19920;-70
2022/06/18 01:40:41;;;;;;;;;;;;;;;20.57;74.69;97171.53;5066860;28;19924;-69
2022/06/18 01:43:41;;;;;;;;;;;;;;;20.30;75.90;97171.19;5064692;28;19920;-71
2022/06/18 01:46:42;;;;;;;;;;;;;;;20.11;76.75;97157.84;5064742;28;19982;-70
2022/06/18 01:49:59;;;;;;;;;;;;;;;20.33;75.91;97163.03;5067430;28;19928;-70
2022/06/18 01:53:02;;;;;;;;;;;;;;;20.41;75.43;97160.63;5066338;28;19951;-70
2022/06/18 01:56:09;;;;;;;;;;;;;;;20.37;75.60;97161.84;5066546;28;19920;-70
2022/06/18 01:59:23;;;;;;;;;;;;;;;20.32;76.18;97163.19;5065138;28;19920;-70
2022/06/18 02:02:26;;;;;;;;;;;;;;;20.09;77.09;97157.16;5025175;28;19981;-69
2022/06/18 02:05:27;;;;;;;;;;;;;;;20.06;77.71;97175.78;5069455;28;19956;-70
2022/06/18 02:08:27;;;;;;;;;;;;;;;20.13;77.61;97169.09;5053760;28;19943;-71
2022/06/18 02:11:28;;;;;;;;;;;;;;;20.04;78.50;97160.16;5071431;28;20307;-70
2022/06/18 02:14:29;;;;;;;;;;;;;;;20.01;79.01;97162.22;5069525;28;19929;-69
2022/06/18 02:17:30;;;;;;;;;;;;;;;20.07;78.39;97159.06;5070220;28;19978;-72
2022/06/18 02:20:33;;;;;;;;;;;;;;;20.32;77.79;97153.47;5071028;28;19952;-70
2022/06/18 02:23:34;;;;;;;;;;;;;;;20.48;76.98;97156.53;5069467;28;19927;-71
2022/06/18 02:26:35;;;;;;;;;;;;;;;20.70;76.01;97160.81;5068246;28;20438;-71
2022/06/18 02:29:39;;;;;;;;;;;;;;;20.57;75.90;97157.53;5070020;28;19924;-70
2022/06/18 02:32:39;;;;;;;;;;;;;;;20.66;76.01;97162.88;5069363;28;19959;-70
2022/06/18 02:35:40;;;;;;;;;;;;;;;20.52;76.16;97176.34;5068702;28;19924;-70
2022/06/18 02:38:41;;;;;;;;;;;;;;;20.61;76.11;97164.22;5069644;28;19924;-70
2022/06/18 02:41:41;;;;;;;;;;;;;;;20.74;75.63;97170.94;5068955;28;19924;-70
2022/06/18 02:44:42;;;;;;;;;;;;;;;20.87;75.02;97166.34;5068958;28;19920;-70
2022/06/18 02:47:42;;;;;;;;;;;;;;;20.87;74.70;97171.59;5069523;28;20023;-71
2022/06/18 02:50:43;;;;;;;;;;;;;;;20.87;74.65;97168.97;5070243;28;19927;-70
2022/06/18 02:53:44;;;;;;;;;;;;;;;20.87;74.17;97165.50;5068822;28;20480;-70
2022/06/18 02:56:46;;;;;;;;;;;;;;;20.80;74.31;97170.44;5067552;28;20359;-70
2022/06/18 02:59:47;;;;;;;;;;;;;;;20.73;74.22;97168.47;5067367;28;20011;-70
2022/06/18 03:02:49;;;;;;;;;;;;;;;20.76;73.97;97166.41;5054492;28;19924;-70
2022/06/18 03:05:52;;;;;;;;;;;;;;;20.79;73.81;97160.84;5068193;28;19920;-70
2022/06/18 03:08:53;;;;;;;;;;;;;;;20.79;72.81;97163.47;5068874;28;20311;-70
2022/06/18 03:12:08;;;;;;;;;;;;;;;20.80;69.94;97153.78;5070205;28;20020;-70
2022/06/18 03:15:09;;;;;;;;;;;;;;;20.86;68.67;97163.81;5067435;28;19920;-70
2022/06/18 03:18:09;;;;;;;;;;;;;;;20.97;67.88;97163.75;5067147;28;20019;-70
2022/06/18 03:20:50;;;;;;;;;;;;;;;20.95;66.27;97163.88;5069241;28;20334;-70
2022/06/18 03:23:51;;;;;;;;;;;;;;;20.97;64.90;97169.84;5068295;28;19921;-70
2022/06/18 03:26:53;;;;;;;;;;;;;;;20.92;64.46;97163.28;5067335;28;19921;-70
2022/06/18 03:29:54;;;;;;;;;;;;;;;20.97;63.87;97161.94;5067135;28;19932;-70
2022/06/18 03:32:55;;;;;;;;;;;;;;;21.01;63.48;97173.03;5068124;28;19936;-71
2022/06/18 03:35:56;;;;;;;;;;;;;;;21.02;63.17;97170.31;5067570;28;19927;-70
2022/06/18 03:38:56;;;;;;;;;;;;;;;21.02;62.69;97180.00;5066838;28;19921;-70
2022/06/18 03:41:58;;;;;;;;;;;;;;;21.03;62.52;97166.72;5068072;28;20003;-70
2022/06/18 03:44:59;;;;;;;;;;;;;;;21.11;62.26;97173.13;5067969;28;19974;-71
2022/06/18 03:48:00;;;;;;;;;;;;;;;21.16;62.14;97165.66;5070470;28;19950;-70
2022/06/18 03:51:01;;;;;;;;;;;;;;;21.14;62.05;97167.59;5071178;28;19920;-71
2022/06/18 03:54:02;;;;;;;;;;;;;;;21.14;61.88;97167.59;5071752;28;20367;-70
2022/06/18 03:57:03;;;;;;;;;;;;;;;21.11;61.79;97162.56;5053693;28;20418;-71
2022/06/18 04:00:04;;;;;;;;;;;;;;;21.11;62.20;97163.41;5069809;28;20259;-71
2022/06/18 04:03:10;;;;;;;;;;;;;;;21.14;61.95;97171.06;5071611;28;19924;-70
2022/06/18 04:06:15;;;;;;;;;;;;;;;21.22;61.79;97176.50;5070708;28;20319;-70
2022/06/18 04:09:17;;;;;;;;;;;;;;;21.22;62.30;97165.97;5069670;28;19923;-71
2022/06/18 04:12:19;;;;;;;;;;;;;;;21.35;62.14;97171.81;5070518;28;19978;-70
2022/06/18 04:15:38;;;;;;;;;;;;;;;21.21;61.76;97164.28;5089603;28;19924;-71
2022/06/18 04:18:47;;;;;;;;;;;;;;;21.06;62.61;97176.97;5070656;28;20310;-70
2022/06/18 04:21:47;;;;;;;;;;;;;;;21.16;62.47;97171.78;5087261;28;20387;-70
2022/06/18 04:25:01;;;;;;;;;;;;;;;21.26;62.45;97177.06;5070935;28;19982;-70
2022/06/18 04:28:02;;;;;;;;;;;;;;;21.28;61.68;97175.97;5070808;28;20403;-72
2022/06/18 04:31:11;;;;;;;;;;;;;;;21.31;61.78;97182.78;5069451;28;19924;-71
2022/06/18 04:34:14;;;;;;;;;;;;;;;21.25;61.87;97193.81;5055392;28;19927;-71
2022/06/18 04:37:34;;;;;;;;;;;;;;;21.17;62.21;97188.38;5088884;28;19920;-70
2022/06/18 04:40:55;;;;;;;;;;;;;;;21.06;61.86;97190.16;5047024;28;20295;-70
2022/06/18 04:43:59;;;;;;;;;;;;;;;21.02;62.61;97196.63;5069244;28;19926;-71
2022/06/18 04:47:04;;;;;;;;;;;;;;;21.15;62.91;97203.50;5070206;28;19920;-71
2022/06/18 04:50:06;;;;;;;;;;;;;;;21.36;62.33;97193.75;5069979;28;20407;-71
2022/06/18 04:53:08;;;;;;;;;;;;;;;21.14;62.23;97201.84;5068862;28;20338;-72
2022/06/18 04:56:18;;;;;;;;;;;;;;;21.12;62.81;97201.13;5069288;28;19943;-71
2022/06/18 04:59:20;;;;;;;;;;;;;;;21.06;62.70;97207.78;5069716;28;19961;-71
2022/06/18 05:02:21;;;;;;;;;;;;;;;21.23;62.09;97219.47;5069938;28;20022;-71
2022/06/18 05:05:33;;;;;;;;;;;;;;;21.27;61.39;97208.53;5069030;28;20457;-71
2022/06/18 05:09:05;;;;;;;;;;;;;;;21.41;61.32;97217.91;5069250;28;20444;-71
2022/06/18 05:12:17;;;;;;;;;;;;;;;21.41;61.25;97225.81;5088436;28;20417;-71
2022/06/18 05:15:39;;;;;;;;;;;;;;;21.60;61.37;97228.50;5077652;28;19920;-71
2022/06/18 05:18:40;;;;;;;;;;;;;;;21.46;61.92;97232.34;5068930;28;19962;-72
2022/06/18 05:21:41;;;;;;;;;;;;;;;21.34;62.30;97243.97;5069999;28;20363;-72
2022/06/18 05:24:42;;;;;;;;;;;;;;;20.84;62.73;97195.53;5069819;28;19927;-72
2022/06/18 05:27:46;;;;;;;;;;;;;;;21.01;63.30;97254.69;5069280;28;19920;-72
2022/06/18 05:30:50;;;;;;;;;;;;;;;20.97;63.57;97254.09;5054743;28;19920;-71
2022/06/18 05:33:53;;;;;;;;;;;;;;;21.08;62.85;97249.78;5069497;28;19969;-70
2022/06/18 05:36:54;;;;;;;;;;;;;;;21.22;63.53;97254.69;5086632;28;19951;-71
2022/06/18 05:39:54;;;;;;;;;;;;;;;21.25;63.55;97249.16;5067754;28;20394;-71
2022/06/18 05:42:56;;;;;;;;;;;;;;;21.00;64.54;97261.75;5086913;28;20289;-71
2022/06/18 05:45:57;;;;;;;;;;;;;;;21.06;64.18;97261.25;5086889;28;20035;-71
2022/06/18 05:48:57;;;;;;;;;;;;;;;21.17;63.04;97251.59;5085600;28;19943;-71
2022/06/18 05:51:58;;;;;;;;;;;;;;;21.23;62.64;97257.19;5069100;28;19920;-71
2022/06/18 05:54:59;;;;;;;;;;;;;;;21.43;62.30;97263.41;5068667;28;19931;-71
2022/06/18 05:58:09;;;;;;;;;;;;;;;21.39;62.31;97275.19;5068635;28;19920;-72
2022/06/18 06:01:12;;;;;;;;;;;;;;;21.39;62.00;97265.47;5068089;28;19962;-70
2022/06/18 06:04:13;;;;;;;;;;;;;;;21.30;62.03;97274.16;5069026;28;19924;-71
2022/06/18 06:07:14;;;;;;;;;;;;;;;21.31;61.71;97269.75;5086786;28;20001;-71
2022/06/18 06:13:44;;;;;;;;;;;;;;;21.49;61.59;97294.50;5052575;28;19927;-71
2022/06/18 06:16:45;;;;;;;;;;;;;;;21.51;61.78;97289.94;5086674;28;19942;-71
2022/06/18 06:19:47;;;;;;;;;;;;;;;21.40;61.68;97284.75;5068345;28;19946;-72
2022/06/18 06:22:48;;;;;;;;;;;;;;;21.53;62.00;97285.38;5085180;28;20399;-71
2022/06/18 06:25:49;;;;;;;;;;;;;;;21.56;61.46;97280.66;5086837;28;19924;-71
2022/06/18 06:28:49;;;;;;;;;;;;;;;21.57;60.97;97278.88;5086299;28;19920;-70
2022/06/18 06:31:50;;;;;;;;;;;;;;;21.71;61.15;97278.53;5084967;28;20305;-71
2022/06/18 06:34:51;;;;;;;;;;;;;;;21.82;60.59;97278.47;5086065;28;19921;-71
2022/06/18 06:37:51;;;;;;;;;;;;;;;21.67;61.11;97291.13;5086704;28;19920;-70
2022/06/18 06:40:54;;;;;;;;;;;;;;;21.61;61.28;97282.91;5085611;28;20066;-72
2022/06/18 06:43:55;;;;;;;;;;;;;;;21.70;61.49;97282.94;5085388;28;20390;-70
2022/06/18 06:46:58;;;;;;;;;;;;;;;21.55;61.26;97257.09;5085815;28;19920;-70
2022/06/18 06:49:58;;;;;;;;;;;;;;;21.94;61.05;97289.75;5087262;28;20310;-70
2022/06/18 06:52:59;;;;;;;;;;;;;;;22.06;59.88;97284.22;5088644;28;20279;-70
2022/06/18 06:59:18;;;;;;;;;;;;;;;22.32;60.03;97290.66;5089679;28;20421;-71
2022/06/18 07:02:19;;;;;;;;;;;;;;;22.32;60.00;97293.31;5088131;28;20410;-74
2022/06/18 07:05:19;;;;;;;;;;;;;;;22.35;60.09;97285.13;5088626;28;19920;-74
2022/06/18 07:08:20;;;;;;;;;;;;;;;22.64;59.88;97286.03;5072445;28;19959;-75
2022/06/18 07:11:21;;;;;;;;;;;;;;;22.57;59.09;97289.31;5088722;28;19920;-75
2022/06/18 07:14:21;;;;;;;;;;;;;;;22.28;59.87;97299.81;5088082;28;19920;-75
2022/06/18 07:17:22;;;;;;;;;;;;;;;22.04;60.89;97301.16;5072020;28;19920;-74
2022/06/18 07:20:23;;;;;;;;;;;;;;;22.21;61.06;97303.16;5070871;28;19962;-74
2022/06/18 07:23:23;;;;;;;;;;;;;;;22.27;60.61;97299.97;5087897;28;19947;-74
2022/06/18 07:26:24;;;;;;;;;;;;;;;22.28;60.59;97302.47;5088916;28;19921;-74
2022/06/18 07:29:25;;;;;;;;;;;;;;;22.22;60.56;97312.72;5089181;28;20219;-75
2022/06/18 07:32:25;;;;;;;;;;;;;;;22.10;60.91;97316.44;5069943;28;20646;-74
2022/06/18 07:35:26;;;;;;;;;;;;;;;22.06;61.27;97315.88;5088777;28;19950;-74
2022/06/18 07:38:27;;;;;;;;;;;;;;;22.09;61.08;97312.97;5071479;28;19920;-74
2022/06/18 07:41:27;;;;;;;;;;;;;;;21.99;60.73;97322.66;5087839;28;20011;-73
2022/06/18 07:44:28;;;;;;;;;;;;;;;22.07;60.73;97320.16;5087267;28;19920;-74
2022/06/18 07:47:29;;;;;;;;;;;;;;;22.36;60.02;97313.19;5071236;28;19920;-74
2022/06/18 07:50:30;;;;;;;;;;;;;;;22.43;59.67;97318.75;5055623;28;19962;-74
2022/06/18 07:53:33;;;;;;;;;;;;;;;22.27;59.79;97314.00;5071295;28;19919;-77
2022/06/18 07:56:34;;;;;;;;;;;;;;;22.47;59.24;97312.22;5088394;28;20050;-74
2022/06/18 07:59:35;;;;;;;;;;;;;;;22.36;59.59;97321.09;5088261;28;20407;-75
2022/06/18 08:02:35;;;;;;;;;;;;;;;22.37;59.78;97325.41;5087183;28;19920;-75
2022/06/18 08:05:39;;;;;;;;;;;;;;;22.42;60.01;97332.94;5087731;28;19919;-74
2022/06/18 08:08:39;;;;;;;;;;;;;;;22.44;59.73;97326.53;5088402;28;19947;-74
2022/06/18 08:11:40;;;;;;;;;;;;;;;22.24;60.47;97331.88;5087318;28;19920;-75
2022/06/18 08:14:41;;;;;;;;;;;;;;;22.50;60.68;97319.88;5071491;28;19920;-74
2022/06/18 08:17:41;;;;;;;;;;;;;;;22.98;59.42;97319.97;5071616;28;19925;-75
2022/06/18 08:20:42;;;;;;;;;;;;;;;23.03;57.42;97333.56;5087478;28;19978;-76
2022/06/18 08:23:43;;;;;;;;;;;;;;;22.92;58.30;97339.81;5085975;28;19943;-75
2022/06/18 08:26:43;;;;;;;;;;;;;;;22.95;58.01;97336.91;5068428;28;19968;-74
2022/06/18 08:29:44;;;;;;;;;;;;;;;22.98;58.03;97330.53;5069466;28;19920;-75
2022/06/18 08:32:44;;;;;;;;;;;;;;;22.59;59.33;97334.91;5070642;28;19943;-75
2022/06/18 08:35:45;;;;;;;;;;;;;;;22.86;59.02;97337.72;5087142;28;19920;-74
2022/06/18 08:38:46;;;;;;;;;;;;;;;22.85;59.59;97336.06;5087352;28;19920;-77
2022/06/18 08:41:42;;;;;;;;;;;;;;;22.70;59.91;97341.88;5086285;28;19927;-75
2022/06/18 08:44:28;;;;;;;;;;;;;;;22.78;59.42;97336.75;5086044;28;19924;-75
2022/06/18 08:47:32;;;;;;;;;;;;;;;22.81;58.78;97339.13;5087820;28;20337;-77
2022/06/18 08:50:33;;;;;;;;;;;;;;;22.90;59.11;97346.19;5057648;28;19931;-75
2022/06/18 08:53:14;;;;;;;;;;;;;;;23.25;59.06;97342.03;5087077;28;19920;-75
2022/06/18 08:56:24;;;;;;;;;;;;;;;23.16;58.07;97339.41;5091884;28;19924;-72
2022/06/18 08:59:28;;;;;;;;;;;;;;;23.18;58.12;97326.88;5107061;28;20014;-72
2022/06/18 09:02:34;;;;;;;;;;;;;;;23.41;57.73;97333.56;5106135;28;19930;-72
2022/06/18 09:05:27;;;;;;;;;;;;;;;23.33;55.61;97336.06;5108168;28;19946;-71
2022/06/18 09:08:11;;;;;;;;;;;;;;;23.00;56.62;97334.66;5108324;28;20417;-71
2022/06/18 09:10:58;;;;;;;;;;;;;;;22.70;57.24;97340.09;5107233;28;20070;-71
2022/06/18 09:13:59;;;;;;;;;;;;;;;22.85;57.76;97338.72;5108889;28;20026;-71
2022/06/18 09:17:03;;;;;;;;;;;;;;;22.85;57.40;97328.16;5110126;28;19920;-71
2022/06/18 09:20:04;;;;;;;;;;;;;;;23.08;56.02;97326.88;5088904;28;19980;-71
2022/06/18 09:23:04;;;;;;;;;;;;;;;23.25;56.25;97331.47;5076598;28;19919;-71
2022/06/18 09:26:05;;;;;;;;;;;;;;;23.41;55.84;97323.00;5111787;28;20568;-71
2022/06/18 09:29:09;;;;;;;;;;;;;;;23.58;55.20;97324.88;5097511;28;20269;-70
2022/06/18 09:32:12;;;;;;;;;;;;;;;23.01;56.20;97330.22;5065059;28;20315;-71
2022/06/18 09:35:05;;;;;;;;;;;;;;;23.12;56.50;97332.72;5093376;28;20011;-71
2022/06/18 09:37:46;;;;;;;;;;;;;;;22.84;57.54;97323.00;5091657;28;19927;-74
2022/06/18 09:40:19;;;;;;;;;;;;;;;22.57;57.47;97326.28;5090921;28;19919;-71
2022/06/18 09:42:53;;;;;;;;;;;;;;;22.65;57.77;97324.66;5104291;28;19919;-71
2022/06/18 09:45:32;;;;;;;;;;;;;;;22.86;58.07;97334.25;5088903;28;19923;-70
2022/06/18 09:48:00;;;;;;;;;;;;;;;23.56;56.19;97326.84;5108291;28;20315;-73
2022/06/18 09:50:41;;;;;;;;;;;;;;;23.44;55.92;97349.13;5088721;28;19919;-71
2022/06/18 09:53:13;;;;;;;;;;;;;;;23.23;55.66;97335.22;5108448;28;20575;-71
2022/06/18 09:55:45;;;;;;;;;;;;;;;23.36;54.81;97331.34;5090328;28;19935;-71
2022/06/18 09:58:15;;;;;;;;;;;;;;;23.47;55.14;97333.00;5107283;28;19920;-73
2022/06/18 10:00:44;;;;;;;;;;;;;;;22.97;55.18;97344.69;5055223;28;19951;-71
2022/06/18 10:06:52;;;;;;;;;;;;;;;23.00;55.57;97344.44;5086742;28;20335;-72
2022/06/18 10:09:07;;;;;;;;;;;;;;;22.72;57.26;97366.34;5087669;28;19960;-71
2022/06/18 10:11:34;;;;;;;;;;;;;;;22.95;56.47;97365.13;5086514;28;19987;-70
2022/06/18 10:14:04;;;;;;;;;;;;;;;22.79;55.94;97362.19;5071021;28;20367;-71
2022/06/18 10:16:36;;;;;;;;;;;;;;;22.68;55.32;97365.78;5069355;28;19927;-70
2022/06/18 10:19:03;;;;;;;;;;;;;;;22.79;55.94;97357.75;5087456;28;20422;-71
2022/06/18 10:21:46;;;;;;;;;;;;;;;22.45;56.31;97369.59;5087759;28;19920;-71
2022/06/18 10:24:22;;;;;;;;;;;;;;;22.54;55.26;97382.84;5089987;28;19919;-71
2022/06/18 10:26:57;;;;;;;;;;;;;;;22.54;55.67;97371.44;5092342;28;19927;-71
2022/06/18 10:29:24;;;;;;;;;;;;;;;22.87;55.42;97370.28;5072321;28;19963;-71
2022/06/18 10:31:53;;;;;;;;;;;;;;;22.97;55.40;97369.31;5090862;28;19927;-72
2022/06/18 10:34:21;;;;;;;;;;;;;;;23.31;54.32;97365.25;5091307;28;19923;-73
2022/06/18 10:36:57;;;;;;;;;;;;;;;23.33;53.88;97351.91;5090815;28;19970;-71
2022/06/18 10:39:31;;;;;;;;;;;;;;;23.44;53.67;97363.19;5091056;28;19920;-73
2022/06/18 10:42:17;;;;;;;;;;;;;;;23.61;53.28;97358.16;5089197;28;20022;-70
2022/06/18 10:44:44;;;;;;;;;;;;;;;23.74;53.31;97371.91;5090240;28;19927;-72
2022/06/18 10:47:15;;;;;;;;;;;;;;;23.49;52.77;97368.06;5090588;28;20276;-71
2022/06/18 10:49:42;;;;;;;;;;;;;;;23.37;53.60;97363.88;5089984;28;19920;-71
2022/06/18 10:52:25;;;;;;;;;;;;;;;23.32;53.48;97366.13;5090821;28;19920;-71
2022/06/18 10:55:11;;;;;;;;;;;;;;;23.35;53.28;97365.81;5089442;28;19931;-74
2022/06/18 10:57:45;;;;;;;;;;;;;;;23.37;52.53;97369.16;5090629;28;19959;-73
2022/06/18 11:00:13;;;;;;;;;;;;;;;23.61;52.56;97363.44;5090981;28;19920;-73
2022/06/18 11:02:41;;;;;;;;;;;;;;;23.68;51.69;97356.63;5089229;28;19920;-72
2022/06/18 11:05:18;;;;;;;;;;;;;;;23.50;51.95;97367.06;5090616;28;19926;-73
2022/06/18 11:07:46;;;;;;;;;;;;;;;23.39;51.06;97378.63;5071546;28;19931;-73
2022/06/18 11:10:28;;;;;;;;;;;;;;;23.29;53.21;97358.44;5090640;28;19923;-72
2022/06/18 11:12:56;;;;;;;;;;;;;;;23.18;53.04;97358.59;5090276;28;19919;-73
2022/06/18 11:15:43;;;;;;;;;;;;;;;23.03;53.44;97352.06;5089636;28;19920;-71
2022/06/18 11:18:20;;;;;;;;;;;;;;;23.42;52.71;97367.78;5090516;28;19969;-70
2022/06/18 11:21:05;;;;;;;;;;;;;;;23.15;52.40;97317.44;5089358;28;19924;-72
2022/06/18 11:23:34;;;;;;;;;;;;;;;23.12;51.83;97367.09;5090231;28;19920;-73
2022/06/18 11:26:23;;;;;;;;;;;;;;;23.24;52.23;97360.69;5075120;28;19920;-72
2022/06/18 11:28:52;;;;;;;;;;;;;;;23.52;51.38;97369.56;5108804;28;19920;-70
2022/06/18 11:31:29;;;;;;;;;;;;;;;23.27;52.16;97363.03;5110406;28;19992;-73
2022/06/18 11:34:19;;;;;;;;;;;;;;;23.45;51.48;97358.75;5109898;28;20248;-73
2022/06/18 11:36:48;;;;;;;;;;;;;;;23.65;50.92;97363.00;5099587;28;19933;-71
2022/06/18 11:39:26;;;;;;;;;;;;;;;23.92;50.55;97360.44;5110591;28;20311;-72
2022/06/18 11:41:57;;;;;;;;;;;;;;;23.63;51.30;97374.72;5108741;28;19920;-71
2022/06/18 11:44:28;;;;;;;;;;;;;;;23.49;51.34;97375.16;5092193;28;19920;-71
2022/06/18 11:47:04;;;;;;;;;;;;;;;23.69;50.26;97368.84;5109283;28;19920;-71
2022/06/18 11:49:34;;;;;;;;;;;;;;;23.93;50.18;97372.66;5109732;28;19950;-71
2022/06/18 11:52:01;;;;;;;;;;;;;;;23.68;49.23;97381.22;5110357;28;19968;-72
2022/06/18 11:54:41;;;;;;;;;;;;;;;23.75;50.07;97373.56;5109436;28;19920;-71
2022/06/18 11:57:17;;;;;;;;;;;;;;;23.85;49.14;97369.06;5088332;28;20315;-72
2022/06/18 12:00:08;;;;;;;;;;;;;;;23.34;50.11;97372.94;5104156;28;19919;-73
2022/06/18 12:02:43;;;;;;;;;;;;;;;23.43;50.68;97377.38;5079167;28;19920;-72
2022/06/18 12:05:15;;;;;;;;;;;;;;;23.66;50.36;97375.25;5109960;28;19931;-71
2022/06/18 12:07:56;;;;;;;;;;;;;;;23.75;49.54;97371.75;5108748;28;20395;-71
2022/06/18 12:10:49;;;;;;;;;;;;;;;24.31;48.25;97376.19;5110468;28;19926;-72
2022/06/18 12:13:16;;;;;;;;;;;;;;;24.24;48.01;97363.53;5078190;28;19920;-72
2022/06/18 12:15:48;;;;;;;;;;;;;;;24.19;48.16;97357.81;5109064;28;19934;-70
2022/06/18 12:18:23;;;;;;;;;;;;;;;24.62;47.42;97359.84;5092035;28;20456;-70
2022/06/18 12:20:58;;;;;;;;;;;;;;;24.14;47.72;97369.84;5107977;28;19969;-70
2022/06/18 12:23:34;;;;;;;;;;;;;;;23.66;48.87;97362.03;5091395;28;19920;-73
2022/06/18 12:26:20;;;;;;;;;;;;;;;23.67;48.94;97366.34;5109124;28;20334;-71
2022/06/18 12:29:05;;;;;;;;;;;;;;;24.06;47.94;97359.16;5108780;28;19919;-73
2022/06/18 12:31:36;;;;;;;;;;;;;;;24.07;47.43;97358.19;5109520;28;19920;-71
2022/06/18 12:34:09;;;;;;;;;;;;;;;24.03;46.98;97354.97;5107558;28;20327;-73
2022/06/18 12:37:11;;;;;;;;;;;;;;;23.90;47.61;97349.16;5088079;28;19919;-72
2022/06/18 12:39:52;;;;;;;;;;;;;;;23.72;47.50;97299.81;5026294;28;20019;-72
2022/06/18 12:42:22;;;;;;;;;;;;;;;24.12;48.02;97351.47;5099955;28;19920;-71
2022/06/18 12:45:01;;;;;;;;;;;;;;;24.35;47.03;97346.63;5109800;28;20448;-72
2022/06/18 12:47:31;;;;;;;;;;;;;;;24.25;46.23;97354.59;5107507;28;20384;-73
2022/06/18 12:50:01;;;;;;;;;;;;;;;24.09;46.12;97340.34;5108760;28;20442;-72
2022/06/18 12:52:34;;;;;;;;;;;;;;;24.20;46.72;97366.59;5108514;28;20376;-71
2022/06/18 12:55:19;;;;;;;;;;;;;;;24.22;46.31;97343.47;5107509;28;19930;-72
2022/06/18 12:57:52;;;;;;;;;;;;;;;24.05;45.56;97345.06;5109294;28;19919;-72
2022/06/18 13:00:24;;;;;;;;;;;;;;;23.94;46.12;97339.13;5089761;28;19927;-72
2022/06/18 13:02:51;;;;;;;;;;;;;;;23.79;47.39;97343.19;5089979;28;19930;-71
2022/06/18 13:05:19;;;;;;;;;;;;;;;24.06;47.39;97330.88;5108808;28;20003;-71
2022/06/18 13:08:03;;;;;;;;;;;;;;;24.60;46.51;97332.69;5107836;28;19920;-71
2022/06/18 13:10:30;;;;;;;;;;;;;;;24.68;45.38;97331.91;5109135;28;19920;-72
2022/06/18 13:12:57;;;;;;;;;;;;;;;24.37;45.66;97302.28;5107699;28;19920;-70
2022/06/18 13:15:33;;;;;;;;;;;;;;;24.88;45.16;97325.50;5108637;28;19924;-71
2022/06/18 13:18:11;;;;;;;;;;;;;;;25.01;42.99;97333.94;5073493;28;19931;-72
2022/06/18 13:30:29;;;;;;;3.30;2.33;;;;;;;24.19;45.49;97333.19;5104345;28;20869;-71
2022/06/18 13:33:12;;;;;;;3.13;2.43;;;;;;;24.25;44.10;97327.31;5104354;28;20209;-70
2022/06/18 13:35:49;;;;;;;3.00;2.70;;;;;;;24.21;44.50;97329.41;5096138;28;20246;-71
2022/06/18 13:38:57;;;;;;;2.83;2.47;;;;;;;24.25;44.15;97333.41;5096086;28;20191;-70
2022/06/18 13:41:52;;;;;;;4.47;2.67;;;;;;;24.00;44.51;97320.84;5103568;28;20312;-70
2022/06/18 13:44:42;;;;;;;2.73;2.00;;;;;;;24.35;44.76;97316.66;5105581;28;20228;-70
2022/06/18 13:47:38;;;;;;;2.87;2.33;;;;;;;24.53;44.12;97312.22;5097408;28;20263;-70
2022/06/18 13:50:41;;;;;;;1.97;1.87;;;;;;;24.48;44.25;97330.38;5085050;28;20854;-70
2022/06/18 13:53:20;;;;;;;2.00;1.90;;;;;;;24.22;43.42;97307.25;5080606;28;20207;-69
2022/06/18 13:55:48;;;;;;;3.77;2.50;;;;;;;24.28;43.41;97307.66;5065962;28;20676;-71
2022/06/18 13:58:26;;;;;;;2.20;2.00;;;;;;;24.34;42.08;97315.81;5085125;28;20206;-71
2022/06/18 14:01:13;;;;;;;1.93;1.83;;;;;;;24.13;42.49;97316.06;5092013;28;20193;-70
2022/06/18 14:04:16;;;;;;;2.50;1.80;;;;;;;24.23;42.70;97324.78;5092249;28;20228;-72
2022/06/18 14:06:53;;;;;;;2.57;2.30;;;;;;;24.31;42.79;97307.34;5104626;28;20691;-71
2022/06/18 14:09:24;;;;;;;2.00;1.80;;;;;;;24.42;43.54;97315.09;5104013;28;20220;-71
2022/06/18 14:12:00;;;;;;;2.43;1.73;;;;;;;24.47;42.76;97328.69;5086171;28;20188;-71
2022/06/18 14:14:33;;;;;;;1.80;1.70;;;;;;;24.33;42.21;97338.00;5104925;28;20195;-71
2022/06/18 14:17:07;;;;;;;3.60;1.90;;;;;;;24.15;41.72;97326.53;5103644;28;20194;-71
2022/06/18 14:19:41;;;;;;;3.87;1.80;;;;;;;24.12;41.16;97332.09;5083598;28;20200;-71
2022/06/18 14:22:17;;;;;;;2.80;1.97;;;;;;;24.07;42.65;97332.53;5103030;28;20202;-72
2022/06/18 14:24:44;;;;;;;2.27;2.07;;;;;;;23.96;43.25;97324.78;5104412;28;20269;-70
2022/06/18 14:27:29;;;;;;;2.87;1.93;;;;;;;23.90;44.16;97335.94;5103962;28;20265;-72
2022/06/18 14:29:59;;;;;;;3.13;1.80;;;;;;;23.83;44.18;97316.31;5103246;28;20192;-70
2022/06/18 14:32:38;;;;;;;2.00;1.90;;;;;;;24.05;44.79;97318.63;5104210;28;20199;-70
2022/06/18 14:35:21;;;;;;;5.43;2.00;;;;;;;24.05;44.74;97329.19;5093692;28;20200;-70
2022/06/18 14:37:50;;;;;;;2.20;2.00;;;;;;;24.00;43.40;97325.31;5090794;28;20701;-73
2022/06/18 14:40:24;;;;;;;2.13;2.00;;;;;;;23.85;43.65;97327.59;5090337;28;20265;-73
2022/06/18 14:42:51;;;;;;;3.00;1.80;;;;;;;23.86;44.78;97333.72;5089793;28;20300;-73
2022/06/18 14:45:38;;;;;;;2.43;2.00;;;;;;;23.92;44.48;97333.97;5090322;28;20624;-73
2022/06/18 14:48:21;;;;;;;2.00;1.90;;;;;;;24.00;43.85;97330.59;5089978;28;20211;-73
2022/06/18 14:51:13;;;;;;;3.20;2.10;;;;;;;24.07;44.36;97321.94;5090238;28;20230;-72
2022/06/18 14:54:17;;;;;;;2.37;2.17;;;;;;;24.16;44.39;97315.78;5090348;28;20201;-72
2022/06/18 14:57:21;;;;;;;4.00;1.77;;;;;;;23.92;43.43;97322.56;5089130;28;20671;-72
2022/06/18 14:59:54;;;;;;;2.37;1.90;;;;;;;23.73;43.82;97323.47;5071768;28;20195;-72
2022/06/18 15:02:41;;;;;;;3.10;1.67;;;;;;;23.91;43.37;97319.06;5090842;28;20227;-72
2022/06/18 15:05:40;;;;;;;2.10;1.70;;;;;;;23.91;42.50;97329.66;5089504;28;20199;-72
2022/06/18 15:08:14;;;;;;;2.67;1.93;;;;;;;24.20;43.61;97327.75;5071180;28;20223;-70